Time;durP1;ratioP1;P1;durP2;ratioP2;P2;SDS_P1;SDS_P2;PMS_P1;PMS_P2;Temp;Humidity;BMP_temperature;BMP_pressure;BME280_temperature;BME280_humidity;BME280_pressure;Samples;Min_cycle;Max_cycle;Signal;HPM_P1;HPM_P2
2024/04/25 00:01:36;;;;;;;10.40;7.60;;;;;;;31.74;90.87;100708.09;5388268;26;65372;-34
2024/04/25 00:04:07;;;;;;;12.25;7.47;;;;;;;31.77;88.33;100710.34;5383073;26;68600;-34
2024/04/25 00:06:38;;;;;;;11.10;7.55;;;;;;;31.82;87.19;100712.38;5386678;26;63934;-34
2024/04/25 00:09:09;;;;;;;8.02;7.22;;;;;;;31.88;85.44;100716.88;5386473;26;68615;-33
2024/04/25 00:11:40;;;;;;;10.13;7.20;;;;;;;31.90;85.93;100716.63;5365845;26;65420;-34
2024/04/25 00:14:11;;;;;;;7.97;6.88;;;;;;;31.93;86.47;100716.19;5386742;26;68920;-33
2024/04/25 00:16:42;;;;;;;7.63;7.13;;;;;;;31.96;85.13;100721.19;5387485;26;65077;-34
2024/04/25 00:19:13;;;;;;;10.17;6.90;;;;;;;31.98;84.54;100716.31;5381942;26;69830;-34
2024/04/25 00:21:44;;;;;;;8.38;7.55;;;;;;;31.99;83.89;100721.53;5386010;26;65549;-34
2024/04/25 00:24:17;;;;;;;6.70;6.30;;;;;;;32.01;83.90;100735.69;5385509;26;68511;-34
2024/04/25 00:26:49;;;;;;;7.70;6.97;;;;;;;32.03;84.88;100738.16;5383184;26;64820;-33
2024/04/25 00:29:20;;;;;;;7.47;6.88;;;;;;;32.04;83.71;100746.09;5385083;26;68575;-34
2024/04/25 00:31:50;;;;;;;7.30;6.65;;;;;;;32.02;84.40;100737.34;5404000;26;65352;-34
2024/04/25 00:34:21;;;;;;;6.93;6.25;;;;;;;32.10;83.91;100743.50;5365607;26;68917;-35
2024/04/25 00:36:52;;;;;;;7.60;7.10;;;;;;;32.12;83.42;100753.03;5386208;26;65503;-34
2024/04/25 00:39:23;;;;;;;7.80;7.10;;;;;;;32.12;83.63;100752.22;5381679;26;67305;-34
2024/04/25 00:41:54;;;;;;;8.25;7.45;;;;;;;32.17;83.55;100760.50;5382854;26;65275;-33
2024/04/25 00:44:25;;;;;;;7.50;6.90;;;;;;;32.18;82.75;100751.28;5383069;26;69474;-43
2024/04/25 00:46:57;;;;;;;8.10;7.30;;;;;;;32.21;83.06;100756.28;5381342;26;64917;-34
2024/04/25 00:49:30;;;;;;;8.45;7.75;;;;;;;32.23;83.17;100755.00;5373946;26;69125;-34
2024/04/25 00:52:01;;;;;;;8.85;8.07;;;;;;;32.25;83.03;100754.75;5384261;26;65449;-34
2024/04/25 00:54:33;;;;;;;8.32;7.65;;;;;;;32.27;82.03;100752.63;5381898;26;68549;-34
2024/04/25 00:57:06;;;;;;;8.68;7.68;;;;;;;32.32;82.23;100765.47;5385529;26;64536;-34
2024/04/25 00:59:49;;;;;;;8.77;8.10;;;;;;;32.15;84.15;100735.47;5385739;26;68740;-34
2024/04/25 01:02:22;;;;;;;9.20;8.30;;;;;;;32.30;82.04;100754.88;5385461;26;65605;-34
2024/04/25 01:04:55;;;;;;;8.80;8.15;;;;;;;32.21;82.15;100743.53;5381437;26;68062;-34
2024/04/25 01:07:26;;;;;;;8.80;8.07;;;;;;;32.41;81.88;100774.97;5376483;26;65915;-35
2024/04/25 01:09:57;;;;;;;8.90;8.20;;;;;;;32.41;81.96;100772.25;5383354;26;68586;-34
2024/04/25 01:12:31;;;;;;;8.27;7.67;;;;;;;32.44;82.32;100772.59;5385007;26;64229;-36
2024/04/25 01:15:02;;;;;;;9.45;8.07;;;;;;;32.48;81.05;100784.69;5383379;26;69303;-34
2024/04/25 01:17:33;;;;;;;8.85;8.27;;;;;;;32.50;81.99;100781.72;5384587;26;64716;-34
2024/04/25 01:20:06;;;;;;;8.45;7.90;;;;;;;32.54;81.79;100788.38;5382526;26;68526;-34
2024/04/25 01:22:46;;;;;;;8.73;8.13;;;;;;;32.60;81.47;100794.75;5384968;26;65074;-34
2024/04/25 01:25:19;;;;;;;8.77;7.97;;;;;;;32.64;81.86;100782.34;5384549;26;67740;-35
2024/04/25 01:27:50;;;;;;;9.18;8.27;;;;;;;32.65;81.52;100789.41;5382257;26;66386;-35
2024/04/25 01:30:23;;;;;;;11.07;8.27;;;;;;;32.67;80.69;100787.31;5393008;26;68418;-35
2024/04/25 01:32:55;;;;;;;9.30;8.70;;;;;;;32.69;81.67;100785.19;5383144;26;64160;-34
2024/04/25 01:35:29;;;;;;;9.50;8.75;;;;;;;32.73;80.94;100791.78;5385107;26;67628;-34
2024/04/25 01:38:01;;;;;;;9.80;8.80;;;;;;;32.76;80.86;100791.31;5385218;26;65241;-34
2024/04/25 01:40:32;;;;;;;9.55;8.85;;;;;;;32.78;81.00;100789.19;5380120;26;69035;-34
2024/04/25 01:43:03;;;;;;;9.77;8.90;;;;;;;32.71;81.04;100777.63;5379006;26;64979;-34
2024/04/25 01:45:34;;;;;;;9.90;9.05;;;;;;;32.86;80.74;100793.47;5383668;26;69095;-33
2024/04/25 01:48:06;;;;;;;9.23;8.43;;;;;;;32.88;80.30;100794.88;5379242;26;66058;-35
2024/04/25 01:50:38;;;;;;;10.07;9.27;;;;;;;32.90;80.86;100789.19;5380859;26;68963;-36
2024/04/25 01:53:09;;;;;;;9.90;9.20;;;;;;;32.94;80.78;100793.09;5384667;26;64480;-35
2024/04/25 01:55:40;;;;;;;8.95;8.35;;;;;;;32.97;80.53;100795.34;5379245;26;68453;-35
2024/04/25 01:58:11;;;;;;;9.85;9.15;;;;;;;33.01;80.36;100809.31;5383351;26;64887;-34
2024/04/25 02:00:42;;;;;;;9.57;8.90;;;;;;;33.02;79.94;100806.38;5361323;26;68814;-36
2024/04/25 02:03:13;;;;;;;9.88;8.88;;;;;;;33.05;80.23;100802.34;5392864;26;64615;-34
2024/04/25 02:05:45;;;;;;;10.02;9.23;;;;;;;33.12;79.74;100811.19;5404211;26;68925;-34
2024/04/25 02:08:16;;;;;;;10.50;9.70;;;;;;;33.15;79.58;100800.69;5379963;26;65122;-33
2024/04/25 02:10:47;;;;;;;10.02;9.35;;;;;;;33.19;79.44;100794.78;5384051;26;67948;-33
2024/04/25 02:13:20;;;;;;;9.93;9.30;;;;;;;32.99;79.38;100767.91;5384269;26;64052;-34
2024/04/25 02:15:51;;;;;;;10.13;9.32;;;;;;;33.22;80.39;100797.84;5380181;26;68848;-34
2024/04/25 02:18:22;;;;;;;9.90;9.00;;;;;;;33.25;79.29;100799.25;5383845;26;63672;-34
2024/04/25 02:26:32;;;;;;;11.30;10.20;;;;;;;33.27;79.75;100772.66;5379429;26;67917;-33
2024/04/25 02:29:04;;;;;;;10.68;9.85;;;;;;;33.36;78.65;100782.91;5374397;26;64487;-34
2024/04/25 02:31:39;;;;;;;11.60;10.70;;;;;;;33.41;79.43;100782.22;5381593;26;68947;-35
2024/04/25 02:34:11;;;;;;;10.60;9.68;;;;;;;33.45;79.90;100782.53;5382290;26;64221;-35
2024/04/25 02:36:42;;;;;;;10.85;10.15;;;;;;;33.46;79.21;100774.16;5378671;26;68142;-38
2024/04/25 02:39:13;;;;;;;10.68;10.02;;;;;;;33.51;78.69;100776.13;5381023;26;64058;-35
2024/04/25 02:41:45;;;;;;;10.68;9.88;;;;;;;33.53;79.75;100783.03;5379940;26;69202;-35
2024/04/25 02:44:16;;;;;;;11.35;10.45;;;;;;;33.56;78.92;100779.00;5380800;26;63272;-34
2024/04/25 02:46:47;;;;;;;11.48;10.55;;;;;;;33.60;78.52;100769.31;5380486;26;68586;-33
2024/04/25 02:49:19;;;;;;;10.80;10.13;;;;;;;33.52;79.48;100750.63;5381633;26;65365;-34
2024/04/25 02:51:51;;;;;;;11.38;10.68;;;;;;;33.66;79.50;100767.50;5380270;26;68843;-37
2024/04/25 02:54:22;;;;;;;10.88;9.90;;;;;;;33.67;79.00;100753.66;5378553;26;65420;-35
2024/04/25 02:56:53;;;;;;;11.07;10.43;;;;;;;33.71;78.38;100765.72;5375647;26;68637;-33
2024/04/25 02:59:25;;;;;;;11.02;10.30;;;;;;;33.73;78.95;100754.56;5381194;26;64952;-35
2024/04/25 03:01:56;;;;;;;10.82;10.02;;;;;;;33.76;79.43;100759.53;5378314;26;68825;-34
2024/04/25 03:04:27;;;;;;;11.35;10.65;;;;;;;33.73;79.25;100741.78;5381335;26;64871;-35
2024/04/25 03:06:58;;;;;;;11.30;10.50;;;;;;;33.81;78.75;100756.91;5381876;26;68827;-35
2024/04/25 03:09:30;;;;;;;11.40;10.57;;;;;;;33.84;78.39;100758.31;5376795;26;64889;-35
2024/04/25 03:12:01;;;;;;;11.45;10.43;;;;;;;33.88;78.98;100754.03;5382919;26;68709;-34
2024/04/25 03:14:32;;;;;;;;;;;;;;;33.85;79.90;100749.06;5382581;26;64017;-34
2024/04/25 03:17:04;;;;;;;10.02;9.43;;;;;;;33.94;78.15;100742.19;5385325;26;69618;-34
2024/04/25 03:19:35;;;;;;;11.02;10.27;;;;;;;33.92;78.07;100738.88;5378594;26;63740;-34
2024/04/25 03:22:06;;;;;;;11.88;10.85;;;;;;;34.01;78.62;100753.72;5383365;26;67928;-34
2024/04/25 03:24:37;;;;;;;11.48;10.38;;;;;;;34.01;78.11;100742.84;5385075;26;65091;-35
2024/04/25 03:27:09;;;;;;;10.83;10.13;;;;;;;34.07;78.31;100738.34;5385623;26;68805;-35
2024/04/25 03:29:40;;;;;;;10.73;10.13;;;;;;;34.09;78.16;100734.31;5383897;26;64813;-35
2024/04/25 03:32:11;;;;;;;12.32;11.27;;;;;;;34.12;78.27;100730.28;5385285;26;68645;-35
2024/04/25 03:34:42;;;;;;;11.52;10.68;;;;;;;34.15;78.57;100736.03;5385785;26;64962;-34
2024/04/25 03:37:14;;;;;;;11.07;10.40;;;;;;;34.18;78.32;100732.81;5380182;26;68707;-34
2024/04/25 03:39:45;;;;;;;11.18;10.48;;;;;;;34.20;78.64;100721.69;5379655;26;65114;-34
2024/04/25 03:42:17;;;;;;;10.80;10.07;;;;;;;34.25;77.86;100733.50;5382669;26;68783;-35
2024/04/25 03:44:48;;;;;;;10.63;9.77;;;;;;;34.28;78.51;100728.66;5381612;26;64276;-36
2024/04/25 03:47:20;;;;;;;11.02;10.32;;;;;;;34.30;77.80;100729.19;5383358;26;68691;-35
2024/04/25 03:49:51;;;;;;;10.65;9.70;;;;;;;34.33;78.51;100728.72;5382362;26;65842;-36
2024/04/25 03:52:23;;;;;;;9.80;9.20;;;;;;;34.36;78.40;100731.78;5376853;26;68625;-34
2024/04/25 03:54:54;;;;;;;;;;;;;;;34.33;78.55;100736.91;5381613;26;64703;-33
2024/04/25 03:57:25;;;;;;;9.77;9.20;;;;;;;34.43;78.16;100724.25;5382592;26;67952;-34
2024/04/25 03:59:57;;;;;;;10.18;9.57;;;;;;;34.46;77.73;100720.19;5377349;26;65208;-34
2024/04/25 04:02:28;;;;;;;10.65;9.63;;;;;;;34.50;78.16;100723.28;5383695;26;68378;-35
2024/04/25 04:04:59;;;;;;;10.45;9.55;;;;;;;34.52;77.48;100726.56;5384651;26;64903;-35
2024/04/25 04:07:31;;;;;;;9.23;8.60;;;;;;;34.54;77.43;100722.50;5385148;26;67367;-35
2024/04/25 04:10:02;;;;;;;9.48;8.88;;;;;;;34.57;77.44;100708.41;5383872;26;65129;-34
2024/04/25 04:12:33;;;;;;;9.60;9.00;;;;;;;34.60;77.08;100709.81;5380189;26;68660;-34
2024/04/25 04:15:05;;;;;;;9.38;8.85;;;;;;;34.62;77.17;100719.41;5382899;26;64282;-35
2024/04/25 04:17:36;;;;;;;9.38;8.65;;;;;;;34.65;77.67;100709.91;5381726;26;68287;-36
2024/04/25 04:20:08;;;;;;;8.63;8.13;;;;;;;34.69;77.11;100706.44;5372582;26;64490;-36
2024/04/25 04:22:39;;;;;;;9.45;8.75;;;;;;;34.70;77.57;100696.34;5382110;26;68408;-35
2024/04/25 04:25:11;;;;;;;8.75;8.18;;;;;;;34.73;77.67;100684.13;5379627;26;64098;-34
2024/04/25 04:27:42;;;;;;;;;;;;;;;34.71;77.80;100692.53;5379785;26;69286;-38
2024/04/25 04:30:14;;;;;;;7.70;7.30;;;;;;;34.82;76.93;100677.97;5384247;26;65324;-36
2024/04/25 04:32:45;;;;;;;8.35;7.85;;;;;;;34.86;76.90;100683.78;5379633;26;68595;-33
2024/04/25 04:35:17;;;;;;;8.50;7.95;;;;;;;34.84;77.33;100675.03;5382957;26;65932;-34
2024/04/25 04:37:48;;;;;;;8.13;7.63;;;;;;;34.89;77.25;100666.91;5376300;26;68734;-36
2024/04/25 04:40:19;;;;;;;8.48;7.85;;;;;;;34.87;76.98;100669.88;5382807;26;64307;-36
2024/04/25 04:42:50;;;;;;;;;;;;;;;34.82;77.22;100664.34;5384347;26;68138;-35
2024/04/25 04:45:21;;;;;;;7.22;6.72;;;;;;;34.91;76.46;100654.69;5381370;26;65375;-35
2024/04/25 04:47:53;;;;;;;8.55;7.85;;;;;;;34.97;76.87;100647.41;5393793;26;68486;-35
2024/04/25 04:50:24;;;;;;;8.20;7.60;;;;;;;34.96;76.96;100644.91;5378013;26;65188;-35
2024/04/25 04:52:56;;;;;;;7.70;7.05;;;;;;;35.04;77.04;100644.47;5376143;26;67937;-35
2024/04/25 04:55:27;;;;;;;7.68;7.18;;;;;;;35.04;76.58;100637.09;5380107;26;65009;-36
2024/04/25 04:57:58;;;;;;;8.13;7.53;;;;;;;35.05;76.64;100638.78;5378811;26;67747;-37
2024/04/25 05:00:32;;;;;;;7.47;7.03;;;;;;;35.06;76.60;100618.63;5385025;26;63737;-35
2024/04/25 05:03:05;;;;;;;7.13;6.60;;;;;;;35.16;76.61;100625.28;5382754;26;67940;-35
2024/04/25 05:05:37;;;;;;;7.78;7.05;;;;;;;35.17;76.34;100619.56;5384312;26;64329;-35
2024/04/25 05:08:08;;;;;;;7.53;6.93;;;;;;;35.18;76.56;100625.84;5383696;26;67509;-38
2024/04/25 05:10:39;;;;;;;6.05;5.65;;;;;;;35.21;76.07;100609.78;5385499;26;65694;-34
2024/04/25 05:13:12;;;;;;;9.07;6.32;;;;;;;35.18;76.65;100593.13;5380734;26;67430;-38
2024/04/25 05:15:43;;;;;;;7.10;6.45;;;;;;;35.25;76.10;100588.31;5382438;26;65977;-38
2024/04/25 05:18:14;;;;;;;6.63;6.22;;;;;;;35.27;76.33;100586.13;5384015;26;67465;-35
2024/04/25 05:20:46;;;;;;;6.28;5.88;;;;;;;35.28;75.91;100569.53;5384972;26;65495;-35
2024/04/25 05:23:18;;;;;;;7.30;6.75;;;;;;;35.30;75.87;100566.53;5382207;26;68278;-37
2024/04/25 05:25:50;;;;;;;6.80;6.40;;;;;;;35.35;75.61;100567.41;5385107;26;64014;-37
2024/04/25 05:28:22;;;;;;;6.25;5.85;;;;;;;35.36;75.64;100554.59;5384490;26;68016;-35
2024/04/25 05:30:53;;;;;;;6.68;6.28;;;;;;;35.40;76.20;100561.16;5383221;26;66357;-38
2024/04/25 05:33:24;;;;;;;6.65;6.25;;;;;;;35.44;75.50;100554.13;5384583;26;68566;-34
2024/04/25 05:35:58;;;;;;;5.88;5.47;;;;;;;35.46;75.17;100551.94;5382233;26;65080;-36
2024/04/25 05:38:29;;;;;;;7.03;6.40;;;;;;;35.52;75.37;100539.16;5383840;26;68788;-37
2024/04/25 05:41:02;;;;;;;5.97;5.47;;;;;;;35.50;75.06;100530.44;5383040;26;65205;-35
2024/04/25 05:43:33;;;;;;;6.38;5.88;;;;;;;35.54;75.63;100532.38;5380466;26;68738;-34
2024/04/25 05:46:06;;;;;;;5.63;5.22;;;;;;;35.58;74.78;100530.00;5379930;26;65412;-36
2024/04/25 05:48:38;;;;;;;6.03;5.63;;;;;;;35.56;75.00;100513.88;5379338;26;67745;-35
2024/04/25 05:51:09;;;;;;;5.95;5.53;;;;;;;35.63;74.88;100521.00;5378542;26;65393;-35
2024/04/25 05:53:41;;;;;;;5.65;5.35;;;;;;;35.62;74.44;100505.75;5377346;26;67892;-35
2024/04/25 05:56:13;;;;;;;6.00;5.50;;;;;;;35.72;75.10;100511.28;5381654;26;63856;-35
2024/04/25 05:58:48;;;;;;;5.63;5.32;;;;;;;35.76;74.35;100496.00;5380787;26;68945;-36
2024/04/25 06:01:20;;;;;;;5.70;5.30;;;;;;;35.79;74.61;100496.28;5382381;26;64958;-35
2024/04/25 06:03:51;;;;;;;5.50;5.10;;;;;;;35.81;74.39;100493.31;5380340;26;68766;-34
2024/04/25 06:06:23;;;;;;;5.95;5.60;;;;;;;35.86;74.49;100476.13;5389026;26;64983;-37
2024/04/25 06:08:54;;;;;;;5.80;5.50;;;;;;;35.92;74.23;100486.03;5392220;26;68825;-36
2024/04/25 06:11:28;;;;;;;5.85;5.32;;;;;;;35.93;74.66;100474.81;5379080;26;64788;-35
2024/04/25 06:14:00;;;;;;;5.80;5.30;;;;;;;35.98;74.41;100469.38;5382708;26;67815;-35
2024/04/25 06:16:31;;;;;;;5.50;5.20;;;;;;;36.02;74.54;100451.41;5384475;26;64175;-36
2024/04/25 06:19:04;;;;;;;5.22;4.93;;;;;;;36.06;74.52;100437.25;5381135;26;67889;-34
2024/04/25 06:21:38;;;;;;;5.20;4.90;;;;;;;36.13;73.68;100424.16;5383510;26;65561;-36
2024/04/25 06:24:11;;;;;;;5.95;5.55;;;;;;;36.11;73.71;100412.69;5383081;26;68896;-35
2024/04/25 06:26:43;;;;;;;5.05;4.75;;;;;;;36.24;73.65;100420.38;5383196;26;65073;-36
2024/04/25 06:29:14;;;;;;;5.57;5.28;;;;;;;36.27;74.10;100403.47;5384058;26;68227;-35
2024/04/25 06:31:45;;;;;;;;;;;;;;;36.22;73.32;100401.56;5380928;26;64686;-35
2024/04/25 06:34:16;;;;;;;4.75;4.45;;;;;;;36.36;74.03;100396.41;5384420;26;67614;-36
2024/04/25 06:36:48;;;;;;;5.20;4.80;;;;;;;36.42;73.55;100398.03;5383575;26;65033;-36
2024/04/25 06:39:19;;;;;;;;;;;;;;;36.33;72.98;100394.22;5380179;26;68384;-37
2024/04/25 06:41:52;;;;;;;4.63;4.40;;;;;;;36.53;72.88;100400.81;5402420;26;65231;-36
2024/04/25 06:44:29;;;;;;;5.18;4.72;;;;;;;36.56;73.24;100390.19;5391553;26;68669;-35
2024/04/25 06:47:10;;;;;;;5.10;4.80;;;;;;;36.58;73.45;100376.22;5383247;26;65003;-40
2024/04/25 06:49:42;;;;;;;4.75;4.55;;;;;;;36.69;72.87;100391.53;5383655;26;68689;-35
2024/04/25 06:52:13;;;;;;;;;;;;;;;36.64;72.10;100380.63;5382722;26;64710;-35
2024/04/25 06:54:44;;;;;;;4.75;4.50;;;;;;;36.80;72.69;100376.78;5386912;26;68772;-36
2024/04/25 06:57:15;;;;;;;4.78;4.43;;;;;;;36.88;72.69;100365.31;5386281;26;64363;-36
2024/04/25 06:59:50;;;;;;;5.18;4.88;;;;;;;36.93;73.06;100367.25;5384022;26;67533;-35
2024/04/25 07:02:21;;;;;;;4.60;4.30;;;;;;;37.00;72.31;100356.00;5364209;26;65828;-35
2024/04/25 07:04:54;;;;;;;5.07;4.78;;;;;;;37.03;71.77;100356.34;5384808;26;67596;-35
2024/04/25 07:07:29;;;;;;;5.07;4.68;;;;;;;37.11;72.65;100360.41;5386254;26;64801;-35
2024/04/25 07:10:00;;;;;;;5.55;5.25;;;;;;;37.17;71.87;100367.53;5384869;26;69107;-39
2024/04/25 07:12:33;;;;;;;4.80;4.50;;;;;;;37.23;71.64;100352.75;5382596;26;64523;-38
2024/04/25 07:15:09;;;;;;;4.55;4.35;;;;;;;37.27;72.30;100356.56;5397901;26;68127;-37
2024/04/25 07:17:41;;;;;;;4.32;4.03;;;;;;;37.37;71.72;100352.19;5395378;26;65474;-37
2024/04/25 07:20:12;;;;;;;4.10;3.90;;;;;;;37.45;72.09;100346.13;5386120;26;68885;-37
2024/04/25 07:22:44;;;;;;;4.95;4.63;;;;;;;37.50;72.02;100344.22;5386062;26;65432;-34
2024/04/25 07:25:17;;;;;;;4.85;4.45;;;;;;;37.56;71.01;100331.34;5384352;26;68265;-35
2024/04/25 07:27:48;;;;;;;4.88;4.03;;;;;;;37.59;71.72;100335.44;5386533;26;64313;-37
2024/04/25 07:30:20;;;;;;;3.95;3.75;;;;;;;37.68;71.72;100342.78;5386429;26;67976;-36
2024/04/25 07:32:51;;;;;;;;;;;;;;;37.62;69.57;100343.91;5381463;26;64725;-34
2024/04/25 07:35:22;;;;;;;3.80;3.60;;;;;;;37.78;71.22;100329.06;5386797;26;68563;-37
2024/04/25 07:37:53;;;;;;;;;;;;;;;37.74;69.32;100327.97;5370268;26;63528;-37
2024/04/25 07:40:25;;;;;;;4.30;4.00;;;;;;;37.94;70.81;100331.72;5377652;26;67646;-35
2024/04/25 07:42:59;;;;;;;4.07;3.78;;;;;;;38.00;70.84;100330.59;5380074;26;64309;-39
2024/04/25 07:45:30;;;;;;;3.97;3.67;;;;;;;38.06;70.90;100329.50;5379883;26;68162;-35
2024/04/25 07:48:01;;;;;;;;;;;;;;;37.98;68.75;100327.34;5386350;26;64778;-37
2024/04/25 07:50:32;;;;;;;4.38;4.15;;;;;;;38.15;70.58;100332.47;5403293;26;68907;-38
2024/04/25 07:53:04;;;;;;;4.18;3.88;;;;;;;38.17;70.59;100331.06;5385101;26;64534;-35
2024/04/25 07:55:36;;;;;;;4.07;3.88;;;;;;;38.23;69.72;100323.66;5384410;26;69138;-35
2024/04/25 07:58:07;;;;;;;;;;;;;;;38.14;69.15;100315.22;5384087;26;64706;-35
2024/04/25 08:00:37;;;;;;;3.83;3.63;;;;;;;38.34;69.18;100307.97;5361320;26;69094;-39
2024/04/25 08:03:08;;;;;;;;;;;;;;;38.22;69.04;100311.84;5386105;26;64568;-36
2024/04/25 08:05:40;;;;;;;3.25;3.05;;;;;;;38.40;69.64;100318.59;5386270;26;68854;-36
2024/04/25 08:08:10;;;;;;;;;;;;;;;38.30;69.02;100318.66;5383457;26;64848;-36
2024/04/25 08:10:44;;;;;;;3.60;3.40;;;;;;;38.47;69.75;100312.81;5386527;26;68579;-36
2024/04/25 08:13:15;;;;;;;3.90;3.67;;;;;;;38.49;69.20;100304.31;5385527;26;65176;-38
2024/04/25 08:15:46;;;;;;;;;;;;;;;38.37;68.01;100291.75;5382358;26;68387;-37
2024/04/25 08:18:18;;;;;;;3.60;3.37;;;;;;;38.53;69.38;100305.34;5382575;26;64966;-35
2024/04/25 08:20:49;;;;;;;3.83;3.58;;;;;;;38.55;69.52;100297.66;5385012;26;67524;-37
2024/04/25 08:23:21;;;;;;;3.85;3.53;;;;;;;38.55;68.93;100293.00;5393055;26;65884;-37
2024/04/25 08:25:51;;;;;;;;;;;;;;;38.42;67.75;100297.25;5397830;26;67842;-37
2024/04/25 08:28:22;;;;;;;3.40;3.20;;;;;;;38.56;68.83;100300.13;5384448;26;65074;-35
2024/04/25 08:30:54;;;;;;;4.45;3.42;;;;;;;38.57;69.62;100299.03;5385478;26;69347;-35
2024/04/25 08:33:24;;;;;;;;;;;;;;;38.43;68.61;100289.81;5384640;26;64731;-36
2024/04/25 08:35:56;;;;;;;3.28;3.08;;;;;;;38.59;69.64;100296.81;5383487;26;68393;-37
2024/04/25 08:38:29;;;;;;;;;;;;;;;38.46;68.53;100289.25;5384793;26;64936;-36
2024/04/25 08:41:01;;;;;;;4.18;3.30;;;;;;;38.57;69.60;100279.03;5385645;26;68651;-37
2024/04/25 08:43:41;;;;;;;3.42;3.22;;;;;;;38.54;68.63;100280.41;5375873;26;65984;-37
2024/04/25 08:46:16;;;;;;;3.47;3.17;;;;;;;38.61;68.67;100285.56;5383409;26;68432;-40
2024/04/25 08:48:48;;;;;;;3.58;3.28;;;;;;;38.60;69.50;100279.25;5383274;26;64918;-36
2024/04/25 08:51:25;;;;;;;3.40;3.10;;;;;;;38.25;69.81;100211.03;5385184;26;67803;-37
2024/04/25 08:54:01;;;;;;;6.03;3.15;;;;;;;38.49;68.97;100246.75;5375324;26;64719;-37
2024/04/25 08:56:34;;;;;;;3.67;3.40;;;;;;;38.57;68.77;100268.88;5389663;26;69197;-37
2024/04/25 08:59:05;;;;;;;3.35;3.10;;;;;;;38.60;69.36;100267.50;5394692;26;66147;-38
2024/04/25 09:01:40;;;;;;;3.30;2.90;;;;;;;38.58;68.72;100275.97;5384106;26;67999;-35
2024/04/25 09:04:16;;;;;;;3.60;3.30;;;;;;;38.44;69.58;100244.88;5365171;26;65418;-36
2024/04/25 09:06:47;;;;;;;3.08;2.83;;;;;;;38.60;68.75;100267.50;5384190;26;67779;-37
2024/04/25 09:09:20;;;;;;;;;;;;;;;38.42;68.87;100283.53;5383004;26;65122;-37
2024/04/25 09:11:54;;;;;;;4.70;3.05;;;;;;;38.57;69.81;100284.50;5381693;26;68540;-37
2024/04/25 09:14:26;;;;;;;6.00;3.00;;;;;;;38.55;68.81;100282.03;5384778;26;65205;-37
2024/04/25 09:16:56;;;;;;;;;;;;;;;38.42;68.78;100275.31;5385853;26;68833;-37
2024/04/25 09:19:28;;;;;;;8.88;3.20;;;;;;;38.52;68.80;100271.66;5384691;26;65017;-38
2024/04/25 09:21:58;;;;;;;;;;;;;;;38.52;68.53;100271.66;5384294;26;68300;-37
2024/04/25 09:24:29;;;;;;;3.03;2.83;;;;;;;38.60;69.86;100271.03;5381556;26;64881;-38
2024/04/25 09:27:01;;;;;;;15.20;2.50;;;;;;;38.61;68.77;100280.88;5382882;26;68636;-38
2024/04/25 09:29:32;;;;;;;3.58;2.55;;;;;;;38.56;69.74;100272.72;5381107;26;64882;-38
2024/04/25 09:32:05;;;;;;;5.75;3.13;;;;;;;38.58;69.41;100267.75;5398003;26;68314;-37
2024/04/25 09:34:36;;;;;;;12.05;3.15;;;;;;;38.40;70.06;100262.97;5385521;26;64964;-38
2024/04/25 09:37:08;;;;;;;11.70;2.78;;;;;;;38.37;70.37;100263.56;5381425;26;68637;-40
2024/04/25 09:39:40;;;;;;;7.10;2.70;;;;;;;38.29;69.60;100266.91;5383310;26;65359;-37
2024/04/25 09:42:14;;;;;;;13.18;2.33;;;;;;;38.26;70.16;100278.44;5368652;26;68376;-36
2024/04/25 09:44:46;;;;;;;8.32;2.67;;;;;;;38.24;70.83;100270.50;5382002;26;65791;-37
2024/04/25 09:47:27;;;;;;;10.13;2.50;;;;;;;38.20;71.10;100267.50;5383256;26;68704;-36
2024/04/25 09:50:11;;;;;;;8.50;2.83;;;;;;;38.19;70.40;100260.38;5379460;26;65029;-37
2024/04/25 09:52:49;;;;;;;3.80;2.88;;;;;;;38.03;71.86;100247.09;5363538;26;68915;-40
2024/04/25 09:55:25;;;;;;;3.47;2.72;;;;;;;38.14;71.95;100260.44;5382296;26;64120;-37
2024/04/25 09:58:00;;;;;;;4.65;2.35;;;;;;;38.06;72.13;100250.09;5372942;26;67405;-42
2024/04/25 10:00:33;;;;;;;7.75;3.00;;;;;;;38.09;72.18;100254.19;5321360;26;64612;-39
2024/04/25 10:03:06;;;;;;;4.50;2.72;;;;;;;37.72;72.56;100217.97;5384081;26;68648;-38
2024/04/25 10:05:39;;;;;;;6.40;2.80;;;;;;;38.02;72.89;100270.09;5388569;26;64720;-38
2024/04/25 10:08:11;;;;;;;9.57;3.40;;;;;;;38.02;72.57;100273.66;5373316;26;68766;-36
2024/04/25 10:10:42;;;;;;;2.92;2.60;;;;;;;37.97;72.76;100279.16;5385504;26;64458;-39
2024/04/25 10:13:19;;;;;;;5.63;3.03;;;;;;;37.88;73.13;100261.66;5384645;26;68561;-37
2024/04/25 10:15:55;;;;;;;10.88;2.90;;;;;;;37.93;72.57;100275.34;5385529;26;64764;-37
2024/04/25 10:18:28;;;;;;;9.75;2.78;;;;;;;37.91;72.48;100274.78;5361475;26;67618;-39
2024/04/25 10:21:03;;;;;;;4.30;2.42;;;;;;;37.86;72.62;100274.81;5384026;26;65565;-38
2024/04/25 10:23:35;;;;;;;7.07;2.72;;;;;;;37.83;73.37;100278.13;5385506;26;67960;-40
2024/04/25 10:26:30;;;;;;;6.65;2.65;;;;;;;37.83;72.80;100278.13;5387316;26;65272;-37
2024/04/25 10:29:05;;;;;;;3.85;2.58;;;;;;;37.70;73.02;100277.66;5387916;26;68035;-38
2024/04/25 10:31:38;;;;;;;5.18;2.63;;;;;;;37.77;73.66;100286.34;5367228;26;65022;-39
2024/04/25 10:34:09;;;;;;;3.67;2.55;;;;;;;37.74;73.16;100284.19;5388506;26;69242;-40
2024/04/25 10:36:46;;;;;;;5.55;3.58;;;;;;;37.59;73.37;100270.59;5388239;26;64898;-37
2024/04/25 10:39:18;;;;;;;2.80;2.60;;;;;;;37.67;73.80;100286.44;5396556;26;69333;-37
2024/04/25 10:41:49;;;;;;;7.05;3.35;;;;;;;37.60;73.76;100293.28;5378443;26;64852;-35
2024/04/25 10:44:20;;;;;;;9.48;3.75;;;;;;;37.53;74.37;100302.63;5386332;26;68117;-38
2024/04/25 10:46:52;;;;;;;13.65;3.70;;;;;;;37.58;74.15;100307.25;5388106;26;63942;-40
2024/04/25 10:49:24;;;;;;;13.43;3.08;;;;;;;37.55;74.06;100302.34;5389062;26;68294;-42
2024/04/25 10:51:55;;;;;;;6.95;3.45;;;;;;;37.48;75.25;100312.75;5387585;26;65071;-39
2024/04/25 10:54:27;;;;;;;5.95;3.33;;;;;;;37.49;74.53;100306.19;5389177;26;68681;-39
2024/04/25 10:56:57;;;;;;;;;;;;;;;37.40;75.95;100316.88;5389545;26;64072;-39
2024/04/25 10:59:32;;;;;;;4.07;3.20;;;;;;;37.42;75.42;100336.56;5386881;26;68392;-36
2024/04/25 11:02:04;;;;;;;3.72;3.40;;;;;;;37.23;74.69;100314.47;5389104;26;64207;-36
2024/04/25 11:04:38;;;;;;;3.60;3.30;;;;;;;37.34;74.61;100334.41;5389068;26;67881;-40
2024/04/25 11:07:12;;;;;;;9.27;3.38;;;;;;;37.31;74.60;100341.25;5365336;26;65609;-37
2024/04/25 11:09:43;;;;;;;4.85;3.50;;;;;;;37.15;76.06;100336.91;5387272;26;69046;-37
2024/04/25 11:12:16;;;;;;;7.03;4.95;;;;;;;37.25;75.92;100352.44;5414555;26;64329;-38
2024/04/25 11:14:48;;;;;;;6.55;4.20;;;;;;;37.29;76.59;100362.56;5399332;26;68883;-41
2024/04/25 11:17:20;;;;;;;5.35;4.18;;;;;;;37.27;76.99;100364.75;5382195;26;64789;-36
2024/04/25 11:19:51;;;;;;;4.55;3.88;;;;;;;36.94;77.70;100373.53;5385633;26;68686;-36
2024/04/25 11:22:24;;;;;;;;;;;;;;;36.64;76.23;100383.38;5364716;26;65857;-35
2024/04/25 11:25:16;;;;;;;4.95;4.07;;;;;;;36.67;72.46;100386.38;5386361;26;68585;-36
2024/04/25 11:27:48;;;;;;;9.20;3.78;;;;;;;36.17;69.68;100332.44;5384227;26;65147;-38
2024/04/25 11:30:20;;;;;;;3.92;3.45;;;;;;;36.38;67.88;100394.19;5385904;26;67862;-36
2024/04/25 11:32:51;;;;;;;;;;;;;;;36.05;65.20;100400.06;5387860;26;65512;-35
2024/04/25 11:35:27;;;;;;;9.30;3.37;;;;;;;36.20;65.66;100391.97;5384848;26;69100;-35
2024/04/25 11:37:58;;;;;;;6.35;3.50;;;;;;;36.00;63.77;100398.97;5386605;26;64293;-37
2024/04/25 11:40:38;;;;;;;4.00;3.38;;;;;;;35.63;63.53;100343.69;5364976;26;67760;-35
2024/04/25 11:43:13;;;;;;;3.17;2.97;;;;;;;35.87;61.13;100410.38;5385252;26;64163;-36
2024/04/25 11:45:47;;;;;;;3.45;3.13;;;;;;;35.70;60.21;100417.94;5368127;26;68717;-38
2024/04/25 11:48:20;;;;;;;3.30;3.10;;;;;;;35.63;60.21;100407.25;5396173;26;65659;-35
2024/04/25 11:50:52;;;;;;;4.15;2.92;;;;;;;35.60;60.53;100423.31;5399741;26;67862;-39
2024/04/25 11:53:23;;;;;;;3.45;3.25;;;;;;;35.46;60.07;100423.75;5387666;26;64188;-38
2024/04/25 11:55:55;;;;;;;3.22;2.92;;;;;;;35.39;59.62;100425.91;5379119;26;67338;-36
2024/04/25 11:58:26;;;;;;;3.65;3.35;;;;;;;35.22;60.04;100419.78;5376771;26;63716;-40